sensor_id;sensor_type;location;lat;lon;timestamp;temperature;humidity
44671;DHT22;48397;53.016;-2.260;2023-02-28T00:01:34;5.80;99.90
44671;DHT22;48397;53.016;-2.260;2023-02-28T00:04:02;5.80;99.90
44671;DHT22;48397;53.016;-2.260;2023-02-28T00:06:31;5.80;99.90
44671;DHT22;48397;53.016;-2.260;2023-02-28T00:09:03;5.80;99.90
44671;DHT22;48397;53.016;-2.260;2023-02-28T00:11:32;5.80;99.90
44671;DHT22;48397;53.016;-2.260;2023-02-28T00:14:05;5.80;99.90
44671;DHT22;48397;53.016;-2.260;2023-02-28T00:16:38;5.70;99.90
44671;DHT22;48397;53.016;-2.260;2023-02-28T00:21:42;5.70;99.90
44671;DHT22;48397;53.016;-2.260;2023-02-28T00:24:12;5.80;99.90
44671;DHT22;48397;53.016;-2.260;2023-02-28T00:26:40;5.70;99.90
44671;DHT22;48397;53.016;-2.260;2023-02-28T00:29:09;5.70;99.90
44671;DHT22;48397;53.016;-2.260;2023-02-28T00:31:40;5.70;99.90
44671;DHT22;48397;53.016;-2.260;2023-02-28T00:34:11;5.70;99.90
44671;DHT22;48397;53.016;-2.260;2023-02-28T00:36:39;5.70;99.90
44671;DHT22;48397;53.016;-2.260;2023-02-28T00:39:08;5.70;99.90
44671;DHT22;48397;53.016;-2.260;2023-02-28T00:41:37;5.70;99.90
44671;DHT22;48397;53.016;-2.260;2023-02-28T00:44:07;5.70;99.90
44671;DHT22;48397;53.016;-2.260;2023-02-28T00:46:35;5.60;99.90
44671;DHT22;48397;53.016;-2.260;2023-02-28T00:49:04;5.60;99.90
44671;DHT22;48397;53.016;-2.260;2023-02-28T00:51:32;5.70;99.90
44671;DHT22;48397;53.016;-2.260;2023-02-28T00:54:03;5.70;99.90
44671;DHT22;48397;53.016;-2.260;2023-02-28T00:56:32;5.70;99.90
44671;DHT22;48397;53.016;-2.260;2023-02-28T00:59:01;5.70;99.90
44671;DHT22;48397;53.016;-2.260;2023-02-28T01:01:30;5.70;99.90
44671;DHT22;48397;53.016;-2.260;2023-02-28T01:03:58;5.60;99.90
44671;DHT22;48397;53.016;-2.260;2023-02-28T01:06:26;5.70;99.90
44671;DHT22;48397;53.016;-2.260;2023-02-28T01:08:55;5.70;99.90
44671;DHT22;48397;53.016;-2.260;2023-02-28T01:11:26;5.60;99.90
44671;DHT22;48397;53.016;-2.260;2023-02-28T01:13:55;5.70;99.90
44671;DHT22;48397;53.016;-2.260;2023-02-28T01:16:23;5.70;99.90
44671;DHT22;48397;53.016;-2.260;2023-02-28T01:18:52;5.70;99.90
44671;DHT22;48397;53.016;-2.260;2023-02-28T01:21:21;5.70;99.90
44671;DHT22;48397;53.016;-2.260;2023-02-28T01:23:50;5.70;99.90
44671;DHT22;48397;53.016;-2.260;2023-02-28T01:26:22;5.70;99.90
44671;DHT22;48397;53.016;-2.260;2023-02-28T01:28:53;5.70;99.90
44671;DHT22;48397;53.016;-2.260;2023-02-28T01:31:23;5.70;99.90
44671;DHT22;48397;53.016;-2.260;2023-02-28T01:33:53;5.80;99.90
44671;DHT22;48397;53.016;-2.260;2023-02-28T01:36:23;5.80;99.90
44671;DHT22;48397;53.016;-2.260;2023-02-28T01:38:52;5.70;99.90
44671;DHT22;48397;53.016;-2.260;2023-02-28T01:41:26;5.70;99.90
44671;DHT22;48397;53.016;-2.260;2023-02-28T01:44:55;5.80;99.90
44671;DHT22;48397;53.016;-2.260;2023-02-28T01:46:56;5.80;99.90
44671;DHT22;48397;53.016;-2.260;2023-02-28T01:49:24;5.70;99.90
44671;DHT22;48397;53.016;-2.260;2023-02-28T01:51:55;5.70;99.90
44671;DHT22;48397;53.016;-2.260;2023-02-28T01:54:28;5.70;99.90
44671;DHT22;48397;53.016;-2.260;2023-02-28T01:57:08;1.90;99.90
44671;DHT22;48397;53.016;-2.260;2023-02-28T01:59:59;5.60;99.90
44671;DHT22;48397;53.016;-2.260;2023-02-28T02:02:44;5.60;99.90
44671;DHT22;48397;53.016;-2.260;2023-02-28T02:05:25;5.60;99.90
44671;DHT22;48397;53.016;-2.260;2023-02-28T02:07:56;5.50;99.90
44671;DHT22;48397;53.016;-2.260;2023-02-28T02:10:35;5.40;99.90
44671;DHT22;48397;53.016;-2.260;2023-02-28T02:18:53;5.50;99.90
44671;DHT22;48397;53.016;-2.260;2023-02-28T02:21:47;5.60;99.90
44671;DHT22;48397;53.016;-2.260;2023-02-28T02:27:34;5.60;99.90
44671;DHT22;48397;53.016;-2.260;2023-02-28T02:33:28;5.50;99.90
44671;DHT22;48397;53.016;-2.260;2023-02-28T02:36:09;5.50;99.90
44671;DHT22;48397;53.016;-2.260;2023-02-28T02:39:06;5.50;99.90
44671;DHT22;48397;53.016;-2.260;2023-02-28T02:42:01;5.40;99.90
44671;DHT22;48397;53.016;-2.260;2023-02-28T02:44:47;5.40;99.90
44671;DHT22;48397;53.016;-2.260;2023-02-28T02:47:20;5.40;99.90
44671;DHT22;48397;53.016;-2.260;2023-02-28T02:49:54;5.30;99.90
44671;DHT22;48397;53.016;-2.260;2023-02-28T02:52:29;5.30;99.90
44671;DHT22;48397;53.016;-2.260;2023-02-28T02:55:00;5.20;99.90
44671;DHT22;48397;53.016;-2.260;2023-02-28T02:57:52;5.20;99.90
44671;DHT22;48397;53.016;-2.260;2023-02-28T03:00:30;5.10;99.90
44671;DHT22;48397;53.016;-2.260;2023-02-28T03:03:00;5.10;99.90
44671;DHT22;48397;53.016;-2.260;2023-02-28T03:05:39;5.10;99.90
44671;DHT22;48397;53.016;-2.260;2023-02-28T03:08:09;5.00;99.90
44671;DHT22;48397;53.016;-2.260;2023-02-28T03:10:42;5.00;99.90
44671;DHT22;48397;53.016;-2.260;2023-02-28T03:19:15;5.00;99.90
44671;DHT22;48397;53.016;-2.260;2023-02-28T03:27:40;5.10;99.90
44671;DHT22;48397;53.016;-2.260;2023-02-28T03:33:00;5.10;99.90
44671;DHT22;48397;53.016;-2.260;2023-02-28T03:35:32;5.10;99.90
44671;DHT22;48397;53.016;-2.260;2023-02-28T03:38:27;5.10;99.90
44671;DHT22;48397;53.016;-2.260;2023-02-28T03:43:36;5.20;99.90
44671;DHT22;48397;53.016;-2.260;2023-02-28T03:46:10;5.20;99.90
44671;DHT22;48397;53.016;-2.260;2023-02-28T03:48:46;5.10;99.90
44671;DHT22;48397;53.016;-2.260;2023-02-28T03:51:17;3.50;99.90
44671;DHT22;48397;53.016;-2.260;2023-02-28T03:53:52;4.90;99.90
44671;DHT22;48397;53.016;-2.260;2023-02-28T03:56:27;4.80;99.90
44671;DHT22;48397;53.016;-2.260;2023-02-28T04:01:42;4.60;99.90
44671;DHT22;48397;53.016;-2.260;2023-02-28T04:04:12;4.40;99.90
44671;DHT22;48397;53.016;-2.260;2023-02-28T04:06:40;4.40;99.90
44671;DHT22;48397;53.016;-2.260;2023-02-28T04:09:11;4.50;99.90
44671;DHT22;48397;53.016;-2.260;2023-02-28T04:11:42;4.50;99.90
44671;DHT22;48397;53.016;-2.260;2023-02-28T04:14:11;4.50;99.90
44671;DHT22;48397;53.016;-2.260;2023-02-28T04:16:41;4.40;99.90
44671;DHT22;48397;53.016;-2.260;2023-02-28T04:19:10;4.50;99.90
44671;DHT22;48397;53.016;-2.260;2023-02-28T04:21:41;4.60;99.90
44671;DHT22;48397;53.016;-2.260;2023-02-28T04:24:11;4.60;99.90
44671;DHT22;48397;53.016;-2.260;2023-02-28T04:26:44;4.70;99.90
44671;DHT22;48397;53.016;-2.260;2023-02-28T04:29:21;4.70;99.90
44671;DHT22;48397;53.016;-2.260;2023-02-28T04:31:50;4.70;99.90
44671;DHT22;48397;53.016;-2.260;2023-02-28T04:34:18;4.70;99.90
44671;DHT22;48397;53.016;-2.260;2023-02-28T04:39:35;4.80;99.90
44671;DHT22;48397;53.016;-2.260;2023-02-28T04:42:04;4.80;99.90
44671;DHT22;48397;53.016;-2.260;2023-02-28T04:44:32;4.80;99.90
44671;DHT22;48397;53.016;-2.260;2023-02-28T04:47:00;4.80;99.90
44671;DHT22;48397;53.016;-2.260;2023-02-28T04:51:55;4.90;99.90
44671;DHT22;48397;53.016;-2.260;2023-02-28T04:54:23;4.90;99.90
44671;DHT22;48397;53.016;-2.260;2023-02-28T04:56:51;4.90;99.90
44671;DHT22;48397;53.016;-2.260;2023-02-28T04:59:19;4.90;99.90
44671;DHT22;48397;53.016;-2.260;2023-02-28T05:01:48;4.90;99.90
44671;DHT22;48397;53.016;-2.260;2023-02-28T05:04:16;4.90;99.90
44671;DHT22;48397;53.016;-2.260;2023-02-28T05:06:44;4.90;99.90
44671;DHT22;48397;53.016;-2.260;2023-02-28T05:09:12;4.90;99.90
44671;DHT22;48397;53.016;-2.260;2023-02-28T05:11:40;4.90;99.90
44671;DHT22;48397;53.016;-2.260;2023-02-28T05:14:11;4.90;99.90
44671;DHT22;48397;53.016;-2.260;2023-02-28T05:19:08;4.90;99.90
44671;DHT22;48397;53.016;-2.260;2023-02-28T05:21:39;4.90;99.90
44671;DHT22;48397;53.016;-2.260;2023-02-28T05:24:10;4.90;99.90
44671;DHT22;48397;53.016;-2.260;2023-02-28T05:26:40;4.90;99.90
44671;DHT22;48397;53.016;-2.260;2023-02-28T05:29:09;4.90;99.90
44671;DHT22;48397;53.016;-2.260;2023-02-28T05:34:05;4.90;99.90
44671;DHT22;48397;53.016;-2.260;2023-02-28T05:36:33;4.90;99.90
44671;DHT22;48397;53.016;-2.260;2023-02-28T05:39:01;4.90;99.90
44671;DHT22;48397;53.016;-2.260;2023-02-28T05:41:30;5.00;99.90
44671;DHT22;48397;53.016;-2.260;2023-02-28T05:43:58;5.00;99.90
44671;DHT22;48397;53.016;-2.260;2023-02-28T05:46:27;5.00;99.90
44671;DHT22;48397;53.016;-2.260;2023-02-28T05:48:54;5.00;99.90
44671;DHT22;48397;53.016;-2.260;2023-02-28T05:51:24;5.00;99.90
44671;DHT22;48397;53.016;-2.260;2023-02-28T05:53:51;5.00;99.90
44671;DHT22;48397;53.016;-2.260;2023-02-28T05:56:19;5.00;99.90
44671;DHT22;48397;53.016;-2.260;2023-02-28T05:58:47;5.00;99.90
44671;DHT22;48397;53.016;-2.260;2023-02-28T06:01:37;5.00;99.90
44671;DHT22;48397;53.016;-2.260;2023-02-28T06:04:08;5.10;99.90
44671;DHT22;48397;53.016;-2.260;2023-02-28T06:06:49;5.00;99.90
44671;DHT22;48397;53.016;-2.260;2023-02-28T06:09:18;5.10;99.90
44671;DHT22;48397;53.016;-2.260;2023-02-28T06:11:46;5.00;99.90
44671;DHT22;48397;53.016;-2.260;2023-02-28T06:14:16;5.00;99.90
44671;DHT22;48397;53.016;-2.260;2023-02-28T06:16:44;5.00;99.90
44671;DHT22;48397;53.016;-2.260;2023-02-28T06:24:09;5.00;99.90
44671;DHT22;48397;53.016;-2.260;2023-02-28T06:26:37;5.00;99.90
44671;DHT22;48397;53.016;-2.260;2023-02-28T06:29:04;5.00;99.90
44671;DHT22;48397;53.016;-2.260;2023-02-28T06:31:32;4.90;99.90
44671;DHT22;48397;53.016;-2.260;2023-02-28T06:34:00;5.00;99.90
44671;DHT22;48397;53.016;-2.260;2023-02-28T06:36:28;4.90;99.90
44671;DHT22;48397;53.016;-2.260;2023-02-28T06:38:56;4.90;99.90
44671;DHT22;48397;53.016;-2.260;2023-02-28T06:41:25;4.90;99.90
44671;DHT22;48397;53.016;-2.260;2023-02-28T06:46:21;4.90;99.90
44671;DHT22;48397;53.016;-2.260;2023-02-28T06:48:50;4.90;99.90
44671;DHT22;48397;53.016;-2.260;2023-02-28T06:51:19;4.90;99.90
44671;DHT22;48397;53.016;-2.260;2023-02-28T06:53:50;4.90;99.90
44671;DHT22;48397;53.016;-2.260;2023-02-28T06:56:18;5.00;99.90
44671;DHT22;48397;53.016;-2.260;2023-02-28T06:58:51;5.00;99.90
44671;DHT22;48397;53.016;-2.260;2023-02-28T07:01:20;5.00;99.90
44671;DHT22;48397;53.016;-2.260;2023-02-28T07:03:50;5.00;99.90
44671;DHT22;48397;53.016;-2.260;2023-02-28T07:06:23;5.10;99.90
44671;DHT22;48397;53.016;-2.260;2023-02-28T07:08:52;5.10;99.90
44671;DHT22;48397;53.016;-2.260;2023-02-28T07:11:21;5.20;99.90
44671;DHT22;48397;53.016;-2.260;2023-02-28T07:13:50;5.10;99.90
44671;DHT22;48397;53.016;-2.260;2023-02-28T07:16:18;5.20;99.90
44671;DHT22;48397;53.016;-2.260;2023-02-28T07:18:46;5.30;99.90
44671;DHT22;48397;53.016;-2.260;2023-02-28T07:21:14;5.30;99.90
44671;DHT22;48397;53.016;-2.260;2023-02-28T07:23:41;5.20;99.90
44671;DHT22;48397;53.016;-2.260;2023-02-28T07:26:13;4.00;99.90
44671;DHT22;48397;53.016;-2.260;2023-02-28T07:28:43;5.30;99.90
44671;DHT22;48397;53.016;-2.260;2023-02-28T07:31:13;5.30;99.90
44671;DHT22;48397;53.016;-2.260;2023-02-28T07:33:44;5.30;99.90
44671;DHT22;48397;53.016;-2.260;2023-02-28T07:36:13;7.00;99.90
44671;DHT22;48397;53.016;-2.260;2023-02-28T07:38:44;5.30;99.90
44671;DHT22;48397;53.016;-2.260;2023-02-28T07:41:16;5.30;99.90
44671;DHT22;48397;53.016;-2.260;2023-02-28T07:43:45;5.30;99.90
44671;DHT22;48397;53.016;-2.260;2023-02-28T07:46:16;5.40;99.90
44671;DHT22;48397;53.016;-2.260;2023-02-28T07:48:47;5.40;99.90
44671;DHT22;48397;53.016;-2.260;2023-02-28T07:51:15;5.50;99.90
44671;DHT22;48397;53.016;-2.260;2023-02-28T07:53:43;5.50;99.90
44671;DHT22;48397;53.016;-2.260;2023-02-28T07:56:11;5.50;99.90
44671;DHT22;48397;53.016;-2.260;2023-02-28T07:58:38;5.40;99.90
44671;DHT22;48397;53.016;-2.260;2023-02-28T08:01:11;5.50;99.90
44671;DHT22;48397;53.016;-2.260;2023-02-28T08:03:40;5.50;99.90
44671;DHT22;48397;53.016;-2.260;2023-02-28T08:06:19;5.50;99.90
44671;DHT22;48397;53.016;-2.260;2023-02-28T08:11:17;5.60;99.90
44671;DHT22;48397;53.016;-2.260;2023-02-28T08:13:45;5.60;99.90
44671;DHT22;48397;53.016;-2.260;2023-02-28T08:16:14;5.60;99.90
44671;DHT22;48397;53.016;-2.260;2023-02-28T08:18:51;5.70;99.90
44671;DHT22;48397;53.016;-2.260;2023-02-28T08:23:50;5.70;99.90
44671;DHT22;48397;53.016;-2.260;2023-02-28T08:26:18;5.80;99.90
44671;DHT22;48397;53.016;-2.260;2023-02-28T08:31:16;5.90;99.90
44671;DHT22;48397;53.016;-2.260;2023-02-28T08:33:44;6.00;99.90
44671;DHT22;48397;53.016;-2.260;2023-02-28T08:38:40;6.00;99.90
44671;DHT22;48397;53.016;-2.260;2023-02-28T08:41:10;6.00;99.90
44671;DHT22;48397;53.016;-2.260;2023-02-28T08:43:39;6.00;99.90
44671;DHT22;48397;53.016;-2.260;2023-02-28T08:46:08;6.10;99.90
44671;DHT22;48397;53.016;-2.260;2023-02-28T08:48:38;6.10;99.90
44671;DHT22;48397;53.016;-2.260;2023-02-28T08:51:08;6.10;99.90
44671;DHT22;48397;53.016;-2.260;2023-02-28T08:53:37;6.20;99.90
44671;DHT22;48397;53.016;-2.260;2023-02-28T08:56:09;6.20;99.90
44671;DHT22;48397;53.016;-2.260;2023-02-28T08:58:37;6.30;99.90
44671;DHT22;48397;53.016;-2.260;2023-02-28T09:01:11;6.30;99.90
44671;DHT22;48397;53.016;-2.260;2023-02-28T09:03:41;6.30;99.90
44671;DHT22;48397;53.016;-2.260;2023-02-28T09:06:10;6.40;99.90
44671;DHT22;48397;53.016;-2.260;2023-02-28T09:08:39;6.40;99.90
44671;DHT22;48397;53.016;-2.260;2023-02-28T09:11:08;6.40;99.90
44671;DHT22;48397;53.016;-2.260;2023-02-28T09:13:36;6.40;99.90
44671;DHT22;48397;53.016;-2.260;2023-02-28T09:16:05;6.40;99.90
44671;DHT22;48397;53.016;-2.260;2023-02-28T09:18:37;6.50;99.90
44671;DHT22;48397;53.016;-2.260;2023-02-28T09:21:07;6.50;99.90
44671;DHT22;48397;53.016;-2.260;2023-02-28T09:23:35;6.60;99.90
44671;DHT22;48397;53.016;-2.260;2023-02-28T09:26:06;6.50;99.90
44671;DHT22;48397;53.016;-2.260;2023-02-28T09:28:34;6.60;99.90
44671;DHT22;48397;53.016;-2.260;2023-02-28T09:31:02;6.50;99.90
44671;DHT22;48397;53.016;-2.260;2023-02-28T09:33:32;6.60;99.90
44671;DHT22;48397;53.016;-2.260;2023-02-28T09:36:02;6.40;99.90
44671;DHT22;48397;53.016;-2.260;2023-02-28T09:38:31;6.60;99.90
44671;DHT22;48397;53.016;-2.260;2023-02-28T09:41:01;6.60;99.90
44671;DHT22;48397;53.016;-2.260;2023-02-28T09:43:35;6.60;99.90
44671;DHT22;48397;53.016;-2.260;2023-02-28T09:48:44;6.80;99.90
44671;DHT22;48397;53.016;-2.260;2023-02-28T09:51:30;6.90;99.90
44671;DHT22;48397;53.016;-2.260;2023-02-28T09:54:01;6.90;99.90
44671;DHT22;48397;53.016;-2.260;2023-02-28T09:56:39;6.90;99.90
44671;DHT22;48397;53.016;-2.260;2023-02-28T10:09:59;7.00;99.90
44671;DHT22;48397;53.016;-2.260;2023-02-28T10:12:30;6.90;99.90
44671;DHT22;48397;53.016;-2.260;2023-02-28T10:15:00;6.90;99.90
44671;DHT22;48397;53.016;-2.260;2023-02-28T10:17:39;6.90;99.90
44671;DHT22;48397;53.016;-2.260;2023-02-28T10:20:27;7.00;99.90
44671;DHT22;48397;53.016;-2.260;2023-02-28T10:26:00;6.90;99.90
44671;DHT22;48397;53.016;-2.260;2023-02-28T10:28:29;7.00;99.90
44671;DHT22;48397;53.016;-2.260;2023-02-28T10:30:58;7.10;99.90
44671;DHT22;48397;53.016;-2.260;2023-02-28T10:33:34;7.10;99.90
44671;DHT22;48397;53.016;-2.260;2023-02-28T10:36:03;7.10;99.90
44671;DHT22;48397;53.016;-2.260;2023-02-28T10:38:37;7.30;99.90
44671;DHT22;48397;53.016;-2.260;2023-02-28T10:41:14;7.40;99.90
44671;DHT22;48397;53.016;-2.260;2023-02-28T10:43:47;7.40;99.90
44671;DHT22;48397;53.016;-2.260;2023-02-28T10:46:17;6.70;99.90
44671;DHT22;48397;53.016;-2.260;2023-02-28T10:51:35;7.40;99.90
44671;DHT22;48397;53.016;-2.260;2023-02-28T10:54:04;7.20;99.90
44671;DHT22;48397;53.016;-2.260;2023-02-28T10:56:32;7.20;99.90
44671;DHT22;48397;53.016;-2.260;2023-02-28T10:59:22;7.20;99.90
44671;DHT22;48397;53.016;-2.260;2023-02-28T11:01:51;7.20;99.90
44671;DHT22;48397;53.016;-2.260;2023-02-28T11:07:03;7.30;99.90
44671;DHT22;48397;53.016;-2.260;2023-02-28T11:09:35;7.50;99.90
44671;DHT22;48397;53.016;-2.260;2023-02-28T11:12:06;7.50;99.90
44671;DHT22;48397;53.016;-2.260;2023-02-28T11:14:40;7.40;99.90
44671;DHT22;48397;53.016;-2.260;2023-02-28T11:17:29;7.40;99.90
44671;DHT22;48397;53.016;-2.260;2023-02-28T11:20:14;7.40;99.90
44671;DHT22;48397;53.016;-2.260;2023-02-28T11:22:46;7.40;99.90
44671;DHT22;48397;53.016;-2.260;2023-02-28T11:25:22;7.40;99.90
44671;DHT22;48397;53.016;-2.260;2023-02-28T11:27:53;7.60;99.90
44671;DHT22;48397;53.016;-2.260;2023-02-28T11:30:35;7.70;99.90
44671;DHT22;48397;53.016;-2.260;2023-02-28T11:33:27;8.00;99.90
44671;DHT22;48397;53.016;-2.260;2023-02-28T11:36:11;8.20;99.90
44671;DHT22;48397;53.016;-2.260;2023-02-28T11:38:39;8.20;99.90
44671;DHT22;48397;53.016;-2.260;2023-02-28T11:51:59;8.40;99.90
44671;DHT22;48397;53.016;-2.260;2023-02-28T12:03:17;8.20;99.90
44671;DHT22;48397;53.016;-2.260;2023-02-28T12:05:53;8.00;99.90
44671;DHT22;48397;53.016;-2.260;2023-02-28T12:08:40;8.10;99.90
44671;DHT22;48397;53.016;-2.260;2023-02-28T12:11:33;8.00;99.90
44671;DHT22;48397;53.016;-2.260;2023-02-28T12:19:22;8.10;99.90
44671;DHT22;48397;53.016;-2.260;2023-02-28T12:22:27;8.10;99.90
44671;DHT22;48397;53.016;-2.260;2023-02-28T12:28:10;8.20;99.90
44671;DHT22;48397;53.016;-2.260;2023-02-28T12:30:52;8.20;99.90
44671;DHT22;48397;53.016;-2.260;2023-02-28T12:33:23;8.30;99.90
44671;DHT22;48397;53.016;-2.260;2023-02-28T12:35:59;8.30;99.90
44671;DHT22;48397;53.016;-2.260;2023-02-28T12:38:38;8.40;99.90
44671;DHT22;48397;53.016;-2.260;2023-02-28T12:41:19;8.50;99.90
44671;DHT22;48397;53.016;-2.260;2023-02-28T12:44:03;8.60;99.90
44671;DHT22;48397;53.016;-2.260;2023-02-28T12:46:41;8.50;99.90
44671;DHT22;48397;53.016;-2.260;2023-02-28T12:49:23;8.40;99.90
44671;DHT22;48397;53.016;-2.260;2023-02-28T12:51:55;8.40;99.90
44671;DHT22;48397;53.016;-2.260;2023-02-28T12:54:42;8.60;99.90
44671;DHT22;48397;53.016;-2.260;2023-02-28T12:59:57;8.50;99.90
44671;DHT22;48397;53.016;-2.260;2023-02-28T13:10:44;8.50;99.90
44671;DHT22;48397;53.016;-2.260;2023-02-28T13:13:23;8.50;99.90
44671;DHT22;48397;53.016;-2.260;2023-02-28T13:16:10;8.40;99.90
44671;DHT22;48397;53.016;-2.260;2023-02-28T13:18:38;8.40;99.90
44671;DHT22;48397;53.016;-2.260;2023-02-28T13:21:09;8.30;99.90
44671;DHT22;48397;53.016;-2.260;2023-02-28T13:24:01;8.50;99.90
44671;DHT22;48397;53.016;-2.260;2023-02-28T13:39:56;8.40;99.90
44671;DHT22;48397;53.016;-2.260;2023-02-28T13:48:37;8.60;99.90
44671;DHT22;48397;53.016;-2.260;2023-02-28T13:50:39;8.50;99.90
44671;DHT22;48397;53.016;-2.260;2023-02-28T13:56:05;8.60;99.90
44671;DHT22;48397;53.016;-2.260;2023-02-28T13:58:54;8.50;99.90
44671;DHT22;48397;53.016;-2.260;2023-02-28T14:01:44;8.50;99.90
44671;DHT22;48397;53.016;-2.260;2023-02-28T14:07:24;8.50;99.90
44671;DHT22;48397;53.016;-2.260;2023-02-28T14:10:07;8.40;99.90
44671;DHT22;48397;53.016;-2.260;2023-02-28T14:13:00;8.50;99.90
44671;DHT22;48397;53.016;-2.260;2023-02-28T14:15:36;8.60;99.90
44671;DHT22;48397;53.016;-2.260;2023-02-28T14:18:30;8.50;99.90
44671;DHT22;48397;53.016;-2.260;2023-02-28T14:21:33;8.50;99.90
44671;DHT22;48397;53.016;-2.260;2023-02-28T14:24:23;10.60;99.90
44671;DHT22;48397;53.016;-2.260;2023-02-28T14:37:53;8.60;99.90
44671;DHT22;48397;53.016;-2.260;2023-02-28T14:40:31;8.60;99.90
44671;DHT22;48397;53.016;-2.260;2023-02-28T14:43:05;8.50;99.90
44671;DHT22;48397;53.016;-2.260;2023-02-28T14:45:35;8.40;99.90
44671;DHT22;48397;53.016;-2.260;2023-02-28T14:48:09;8.30;99.90
44671;DHT22;48397;53.016;-2.260;2023-02-28T14:50:37;8.30;99.90
44671;DHT22;48397;53.016;-2.260;2023-02-28T14:53:09;8.30;99.90
44671;DHT22;48397;53.016;-2.260;2023-02-28T14:55:44;8.30;99.90
44671;DHT22;48397;53.016;-2.260;2023-02-28T14:58:23;8.20;99.90
44671;DHT22;48397;53.016;-2.260;2023-02-28T15:00:54;8.20;99.90
44671;DHT22;48397;53.016;-2.260;2023-02-28T15:03:30;8.20;99.90
44671;DHT22;48397;53.016;-2.260;2023-02-28T15:06:18;8.20;99.90
44671;DHT22;48397;53.016;-2.260;2023-02-28T15:09:16;8.20;99.90
44671;DHT22;48397;53.016;-2.260;2023-02-28T15:11:48;8.30;99.90
44671;DHT22;48397;53.016;-2.260;2023-02-28T15:14:20;8.40;99.90
44671;DHT22;48397;53.016;-2.260;2023-02-28T15:16:55;8.40;99.90
44671;DHT22;48397;53.016;-2.260;2023-02-28T15:19:33;8.40;99.90
44671;DHT22;48397;53.016;-2.260;2023-02-28T15:22:04;8.30;99.90
44671;DHT22;48397;53.016;-2.260;2023-02-28T15:24:46;8.30;99.90
44671;DHT22;48397;53.016;-2.260;2023-02-28T15:27:27;8.20;99.90
44671;DHT22;48397;53.016;-2.260;2023-02-28T15:29:57;8.20;99.90
44671;DHT22;48397;53.016;-2.260;2023-02-28T15:32:29;8.20;99.90
44671;DHT22;48397;53.016;-2.260;2023-02-28T15:34:59;8.10;99.90
44671;DHT22;48397;53.016;-2.260;2023-02-28T15:37:52;8.00;99.90
44671;DHT22;48397;53.016;-2.260;2023-02-28T15:43:31;8.00;99.90
44671;DHT22;48397;53.016;-2.260;2023-02-28T15:46:10;8.00;99.90
44671;DHT22;48397;53.016;-2.260;2023-02-28T15:48:55;8.00;99.90
44671;DHT22;48397;53.016;-2.260;2023-02-28T15:51:34;8.00;99.90
44671;DHT22;48397;53.016;-2.260;2023-02-28T15:54:19;7.90;99.90
44671;DHT22;48397;53.016;-2.260;2023-02-28T15:56:53;7.90;99.90
44671;DHT22;48397;53.016;-2.260;2023-02-28T15:59:23;7.80;99.90
44671;DHT22;48397;53.016;-2.260;2023-02-28T16:02:19;8.00;99.90
44671;DHT22;48397;53.016;-2.260;2023-02-28T16:07:45;7.90;99.90
44671;DHT22;48397;53.016;-2.260;2023-02-28T16:10:14;8.00;99.90
44671;DHT22;48397;53.016;-2.260;2023-02-28T16:12:42;8.00;99.90
44671;DHT22;48397;53.016;-2.260;2023-02-28T16:15:22;8.00;99.90
44671;DHT22;48397;53.016;-2.260;2023-02-28T16:17:50;7.90;99.90
44671;DHT22;48397;53.016;-2.260;2023-02-28T16:20:20;7.90;99.90
44671;DHT22;48397;53.016;-2.260;2023-02-28T16:25:21;7.90;99.90
44671;DHT22;48397;53.016;-2.260;2023-02-28T16:27:52;8.00;99.90
44671;DHT22;48397;53.016;-2.260;2023-02-28T16:30:27;7.90;99.90
44671;DHT22;48397;53.016;-2.260;2023-02-28T16:32:56;8.00;99.90
44671;DHT22;48397;53.016;-2.260;2023-02-28T16:35:23;7.90;99.90
44671;DHT22;48397;53.016;-2.260;2023-02-28T16:37:52;7.90;99.90
44671;DHT22;48397;53.016;-2.260;2023-02-28T16:40:23;7.90;99.90
44671;DHT22;48397;53.016;-2.260;2023-02-28T16:42:55;7.80;99.90
44671;DHT22;48397;53.016;-2.260;2023-02-28T16:45:27;7.80;99.90
44671;DHT22;48397;53.016;-2.260;2023-02-28T16:47:56;7.90;99.90
44671;DHT22;48397;53.016;-2.260;2023-02-28T16:50:29;7.90;99.90
44671;DHT22;48397;53.016;-2.260;2023-02-28T16:52:57;7.10;99.90
44671;DHT22;48397;53.016;-2.260;2023-02-28T16:55:26;7.90;99.90
44671;DHT22;48397;53.016;-2.260;2023-02-28T16:57:56;7.90;99.90
44671;DHT22;48397;53.016;-2.260;2023-02-28T17:00:26;7.80;99.90
44671;DHT22;48397;53.016;-2.260;2023-02-28T17:02:55;7.90;99.90
44671;DHT22;48397;53.016;-2.260;2023-02-28T17:05:23;7.90;99.90
44671;DHT22;48397;53.016;-2.260;2023-02-28T17:07:51;7.80;99.90
44671;DHT22;48397;53.016;-2.260;2023-02-28T17:10:25;7.80;99.90
44671;DHT22;48397;53.016;-2.260;2023-02-28T17:12:53;7.90;99.90
44671;DHT22;48397;53.016;-2.260;2023-02-28T17:15:29;7.80;99.90
44671;DHT22;48397;53.016;-2.260;2023-02-28T17:17:58;7.80;99.90
44671;DHT22;48397;53.016;-2.260;2023-02-28T17:22:54;7.70;99.90
44671;DHT22;48397;53.016;-2.260;2023-02-28T17:25:24;7.70;99.90
44671;DHT22;48397;53.016;-2.260;2023-02-28T17:27:51;7.70;99.90
44671;DHT22;48397;53.016;-2.260;2023-02-28T17:30:22;7.70;99.90
44671;DHT22;48397;53.016;-2.260;2023-02-28T17:35:18;7.50;99.90
44671;DHT22;48397;53.016;-2.260;2023-02-28T17:37:46;7.60;99.90
44671;DHT22;48397;53.016;-2.260;2023-02-28T17:40:20;7.50;99.90
44671;DHT22;48397;53.016;-2.260;2023-02-28T17:42:48;7.50;99.90
44671;DHT22;48397;53.016;-2.260;2023-02-28T17:45:16;7.50;99.90
44671;DHT22;48397;53.016;-2.260;2023-02-28T17:47:47;7.40;99.90
44671;DHT22;48397;53.016;-2.260;2023-02-28T17:50:17;7.40;99.90
44671;DHT22;48397;53.016;-2.260;2023-02-28T17:52:46;7.50;99.90
44671;DHT22;48397;53.016;-2.260;2023-02-28T17:55:14;7.40;99.90
44671;DHT22;48397;53.016;-2.260;2023-02-28T17:57:42;7.40;99.90
44671;DHT22;48397;53.016;-2.260;2023-02-28T18:00:14;7.50;99.90
44671;DHT22;48397;53.016;-2.260;2023-02-28T18:02:44;7.40;99.90
44671;DHT22;48397;53.016;-2.260;2023-02-28T18:05:12;7.40;99.90
44671;DHT22;48397;53.016;-2.260;2023-02-28T18:07:40;7.30;99.90
44671;DHT22;48397;53.016;-2.260;2023-02-28T18:10:14;7.30;99.90
44671;DHT22;48397;53.016;-2.260;2023-02-28T18:12:43;11.10;99.90
44671;DHT22;48397;53.016;-2.260;2023-02-28T18:15:11;7.30;99.90
44671;DHT22;48397;53.016;-2.260;2023-02-28T18:17:39;7.30;99.90
44671;DHT22;48397;53.016;-2.260;2023-02-28T18:20:07;7.20;99.90
44671;DHT22;48397;53.016;-2.260;2023-02-28T18:22:38;7.20;99.90
44671;DHT22;48397;53.016;-2.260;2023-02-28T18:25:07;7.20;99.90
44671;DHT22;48397;53.016;-2.260;2023-02-28T18:27:36;7.20;99.90
44671;DHT22;48397;53.016;-2.260;2023-02-28T18:30:03;7.30;99.90
44671;DHT22;48397;53.016;-2.260;2023-02-28T18:32:31;7.20;99.90
44671;DHT22;48397;53.016;-2.260;2023-02-28T18:34:59;7.20;99.90
44671;DHT22;48397;53.016;-2.260;2023-02-28T18:37:26;7.10;99.90
44671;DHT22;48397;53.016;-2.260;2023-02-28T18:39:54;7.20;99.90
44671;DHT22;48397;53.016;-2.260;2023-02-28T18:42:25;7.10;99.90
44671;DHT22;48397;53.016;-2.260;2023-02-28T18:44:56;7.10;99.90
44671;DHT22;48397;53.016;-2.260;2023-02-28T18:47:23;7.20;99.90
44671;DHT22;48397;53.016;-2.260;2023-02-28T18:49:51;7.10;99.90
44671;DHT22;48397;53.016;-2.260;2023-02-28T18:52:19;7.10;99.90
44671;DHT22;48397;53.016;-2.260;2023-02-28T18:54:47;7.10;99.90
44671;DHT22;48397;53.016;-2.260;2023-02-28T18:57:15;7.10;99.90